sensor_id;sensor_type;location;lat;lon;timestamp;P1;durP1;ratioP1;P2;durP2;ratioP2
58208;SDS011;44006;52.028;4.696;2022-07-18T00:01:29;9.05;;;5.65;;
58208;SDS011;44006;52.028;4.696;2022-07-18T00:03:54;11.50;;;5.50;;
58208;SDS011;44006;52.028;4.696;2022-07-18T00:06:20;9.93;;;5.93;;
58208;SDS011;44006;52.028;4.696;2022-07-18T00:08:45;9.90;;;6.22;;
58208;SDS011;44006;52.028;4.696;2022-07-18T00:11:10;10.02;;;6.05;;
58208;SDS011;44006;52.028;4.696;2022-07-18T00:13:36;8.57;;;5.32;;
58208;SDS011;44006;52.028;4.696;2022-07-18T00:16:02;11.45;;;6.15;;
58208;SDS011;44006;52.028;4.696;2022-07-18T00:18:28;9.45;;;5.53;;
58208;SDS011;44006;52.028;4.696;2022-07-18T00:20:53;7.10;;;4.95;;
58208;SDS011;44006;52.028;4.696;2022-07-18T00:23:18;10.10;;;5.43;;
58208;SDS011;44006;52.028;4.696;2022-07-18T00:25:44;10.05;;;5.88;;
58208;SDS011;44006;52.028;4.696;2022-07-18T00:28:09;9.70;;;5.70;;
58208;SDS011;44006;52.028;4.696;2022-07-18T00:30:36;9.07;;;5.85;;
58208;SDS011;44006;52.028;4.696;2022-07-18T00:33:02;8.50;;;5.22;;
58208;SDS011;44006;52.028;4.696;2022-07-18T00:35:28;9.73;;;5.70;;
58208;SDS011;44006;52.028;4.696;2022-07-18T00:37:53;8.15;;;4.78;;
58208;SDS011;44006;52.028;4.696;2022-07-18T00:40:19;9.98;;;5.10;;
58208;SDS011;44006;52.028;4.696;2022-07-18T00:42:45;7.75;;;4.95;;
58208;SDS011;44006;52.028;4.696;2022-07-18T00:45:10;7.85;;;5.05;;
58208;SDS011;44006;52.028;4.696;2022-07-18T00:47:36;10.60;;;5.57;;
58208;SDS011;44006;52.028;4.696;2022-07-18T00:50:01;9.07;;;5.47;;
58208;SDS011;44006;52.028;4.696;2022-07-18T00:52:28;9.35;;;4.70;;
58208;SDS011;44006;52.028;4.696;2022-07-18T00:54:54;7.70;;;4.88;;
58208;SDS011;44006;52.028;4.696;2022-07-18T00:57:19;7.03;;;4.47;;
58208;SDS011;44006;52.028;4.696;2022-07-18T00:59:45;7.53;;;4.63;;
58208;SDS011;44006;52.028;4.696;2022-07-18T01:02:29;9.60;;;4.80;;
58208;SDS011;44006;52.028;4.696;2022-07-18T01:04:54;6.70;;;4.20;;
58208;SDS011;44006;52.028;4.696;2022-07-18T01:07:19;8.27;;;4.60;;
58208;SDS011;44006;52.028;4.696;2022-07-18T01:09:45;7.30;;;4.45;;
58208;SDS011;44006;52.028;4.696;2022-07-18T01:12:10;8.15;;;4.78;;
58208;SDS011;44006;52.028;4.696;2022-07-18T01:14:36;7.40;;;4.65;;
58208;SDS011;44006;52.028;4.696;2022-07-18T01:17:02;7.90;;;4.22;;
58208;SDS011;44006;52.028;4.696;2022-07-18T01:19:27;7.85;;;5.05;;
58208;SDS011;44006;52.028;4.696;2022-07-18T01:21:53;7.30;;;4.22;;
58208;SDS011;44006;52.028;4.696;2022-07-18T01:24:19;8.02;;;4.30;;
58208;SDS011;44006;52.028;4.696;2022-07-18T01:26:44;8.48;;;4.68;;
58208;SDS011;44006;52.028;4.696;2022-07-18T01:29:10;7.78;;;4.45;;
58208;SDS011;44006;52.028;4.696;2022-07-18T01:31:35;7.28;;;4.50;;
58208;SDS011;44006;52.028;4.696;2022-07-18T01:34:01;6.95;;;4.28;;
58208;SDS011;44006;52.028;4.696;2022-07-18T01:36:26;7.25;;;4.20;;
58208;SDS011;44006;52.028;4.696;2022-07-18T01:38:52;9.32;;;4.05;;
58208;SDS011;44006;52.028;4.696;2022-07-18T01:41:17;9.60;;;4.85;;
58208;SDS011;44006;52.028;4.696;2022-07-18T01:43:43;7.65;;;4.38;;
58208;SDS011;44006;52.028;4.696;2022-07-18T01:46:09;7.20;;;4.20;;
58208;SDS011;44006;52.028;4.696;2022-07-18T01:48:36;7.57;;;4.00;;
58208;SDS011;44006;52.028;4.696;2022-07-18T01:51:03;6.95;;;3.90;;
58208;SDS011;44006;52.028;4.696;2022-07-18T01:53:29;7.60;;;4.00;;
58208;SDS011;44006;52.028;4.696;2022-07-18T01:55:54;8.57;;;4.50;;
58208;SDS011;44006;52.028;4.696;2022-07-18T01:58:20;6.93;;;4.65;;
58208;SDS011;44006;52.028;4.696;2022-07-18T02:00:45;12.40;;;4.50;;
58208;SDS011;44006;52.028;4.696;2022-07-18T02:03:11;7.82;;;4.40;;
58208;SDS011;44006;52.028;4.696;2022-07-18T02:05:36;9.38;;;4.30;;
58208;SDS011;44006;52.028;4.696;2022-07-18T02:08:01;7.45;;;4.50;;
58208;SDS011;44006;52.028;4.696;2022-07-18T02:10:27;10.35;;;4.57;;
58208;SDS011;44006;52.028;4.696;2022-07-18T02:12:52;7.78;;;4.30;;
58208;SDS011;44006;52.028;4.696;2022-07-18T02:15:18;8.85;;;4.55;;
58208;SDS011;44006;52.028;4.696;2022-07-18T02:17:43;8.27;;;4.20;;
58208;SDS011;44006;52.028;4.696;2022-07-18T02:20:10;8.00;;;4.32;;
58208;SDS011;44006;52.028;4.696;2022-07-18T02:22:36;7.47;;;4.22;;
58208;SDS011;44006;52.028;4.696;2022-07-18T02:25:02;7.70;;;4.18;;
58208;SDS011;44006;52.028;4.696;2022-07-18T02:27:28;7.78;;;4.65;;
58208;SDS011;44006;52.028;4.696;2022-07-18T02:29:54;9.18;;;5.47;;
58208;SDS011;44006;52.028;4.696;2022-07-18T02:32:19;10.60;;;4.80;;
58208;SDS011;44006;52.028;4.696;2022-07-18T02:34:45;8.07;;;4.78;;
58208;SDS011;44006;52.028;4.696;2022-07-18T02:37:11;11.57;;;4.53;;
58208;SDS011;44006;52.028;4.696;2022-07-18T02:39:37;7.82;;;4.70;;
58208;SDS011;44006;52.028;4.696;2022-07-18T02:42:03;8.35;;;4.70;;
58208;SDS011;44006;52.028;4.696;2022-07-18T02:44:29;8.13;;;4.22;;
58208;SDS011;44006;52.028;4.696;2022-07-18T02:46:54;9.57;;;4.22;;
58208;SDS011;44006;52.028;4.696;2022-07-18T02:49:20;10.23;;;4.47;;
58208;SDS011;44006;52.028;4.696;2022-07-18T02:51:55;7.30;;;4.47;;
58208;SDS011;44006;52.028;4.696;2022-07-18T02:54:22;7.43;;;4.32;;
58208;SDS011;44006;52.028;4.696;2022-07-18T02:56:48;8.65;;;4.45;;
58208;SDS011;44006;52.028;4.696;2022-07-18T02:59:14;7.47;;;4.03;;
58208;SDS011;44006;52.028;4.696;2022-07-18T03:01:39;9.60;;;4.53;;
58208;SDS011;44006;52.028;4.696;2022-07-18T03:04:04;7.45;;;4.95;;
58208;SDS011;44006;52.028;4.696;2022-07-18T03:06:30;7.28;;;4.20;;
58208;SDS011;44006;52.028;4.696;2022-07-18T03:08:55;9.48;;;4.65;;
58208;SDS011;44006;52.028;4.696;2022-07-18T03:11:20;7.10;;;4.38;;
58208;SDS011;44006;52.028;4.696;2022-07-18T03:13:46;7.25;;;4.28;;
58208;SDS011;44006;52.028;4.696;2022-07-18T03:16:11;7.88;;;4.07;;
58208;SDS011;44006;52.028;4.696;2022-07-18T03:18:36;9.10;;;4.57;;
58208;SDS011;44006;52.028;4.696;2022-07-18T03:21:02;8.50;;;4.50;;
58208;SDS011;44006;52.028;4.696;2022-07-18T03:23:27;13.63;;;6.20;;
58208;SDS011;44006;52.028;4.696;2022-07-18T03:25:52;7.15;;;4.32;;
58208;SDS011;44006;52.028;4.696;2022-07-18T03:28:18;8.68;;;4.30;;
58208;SDS011;44006;52.028;4.696;2022-07-18T03:30:43;6.93;;;4.20;;
58208;SDS011;44006;52.028;4.696;2022-07-18T03:33:09;6.80;;;4.63;;
58208;SDS011;44006;52.028;4.696;2022-07-18T03:35:35;8.75;;;4.63;;
58208;SDS011;44006;52.028;4.696;2022-07-18T03:38:00;6.40;;;4.10;;
58208;SDS011;44006;52.028;4.696;2022-07-18T03:40:26;7.32;;;3.60;;
58208;SDS011;44006;52.028;4.696;2022-07-18T03:42:51;6.60;;;3.58;;
58208;SDS011;44006;52.028;4.696;2022-07-18T03:45:16;6.45;;;4.00;;
58208;SDS011;44006;52.028;4.696;2022-07-18T03:47:42;7.57;;;3.95;;
58208;SDS011;44006;52.028;4.696;2022-07-18T03:50:07;7.65;;;3.97;;
58208;SDS011;44006;52.028;4.696;2022-07-18T03:52:33;6.80;;;4.05;;
58208;SDS011;44006;52.028;4.696;2022-07-18T03:54:58;6.05;;;3.22;;
58208;SDS011;44006;52.028;4.696;2022-07-18T03:57:26;6.05;;;3.80;;
58208;SDS011;44006;52.028;4.696;2022-07-18T03:59:52;6.53;;;3.72;;
58208;SDS011;44006;52.028;4.696;2022-07-18T04:02:17;8.35;;;3.75;;
58208;SDS011;44006;52.028;4.696;2022-07-18T04:04:42;7.88;;;4.10;;
58208;SDS011;44006;52.028;4.696;2022-07-18T04:07:08;7.47;;;3.88;;
58208;SDS011;44006;52.028;4.696;2022-07-18T04:09:33;8.02;;;3.80;;
58208;SDS011;44006;52.028;4.696;2022-07-18T04:11:58;6.95;;;3.80;;
58208;SDS011;44006;52.028;4.696;2022-07-18T04:14:24;8.18;;;4.40;;
58208;SDS011;44006;52.028;4.696;2022-07-18T04:16:49;7.97;;;4.00;;
58208;SDS011;44006;52.028;4.696;2022-07-18T04:19:14;7.53;;;4.30;;
58208;SDS011;44006;52.028;4.696;2022-07-18T04:21:41;8.73;;;4.50;;
58208;SDS011;44006;52.028;4.696;2022-07-18T04:24:07;8.02;;;4.30;;
58208;SDS011;44006;52.028;4.696;2022-07-18T04:26:32;8.05;;;4.65;;
58208;SDS011;44006;52.028;4.696;2022-07-18T04:28:57;9.50;;;4.93;;
58208;SDS011;44006;52.028;4.696;2022-07-18T04:31:23;10.70;;;4.70;;
58208;SDS011;44006;52.028;4.696;2022-07-18T04:33:48;8.68;;;4.85;;
58208;SDS011;44006;52.028;4.696;2022-07-18T04:36:14;10.20;;;5.25;;
58208;SDS011;44006;52.028;4.696;2022-07-18T04:38:39;9.05;;;5.40;;
58208;SDS011;44006;52.028;4.696;2022-07-18T04:41:05;9.77;;;5.07;;
58208;SDS011;44006;52.028;4.696;2022-07-18T04:43:30;10.40;;;5.05;;
58208;SDS011;44006;52.028;4.696;2022-07-18T04:45:56;7.40;;;4.57;;
58208;SDS011;44006;52.028;4.696;2022-07-18T04:48:21;9.95;;;5.25;;
58208;SDS011;44006;52.028;4.696;2022-07-18T04:50:47;10.88;;;5.35;;
58208;SDS011;44006;52.028;4.696;2022-07-18T04:53:12;11.55;;;5.40;;
58208;SDS011;44006;52.028;4.696;2022-07-18T04:55:37;9.60;;;5.47;;
58208;SDS011;44006;52.028;4.696;2022-07-18T04:58:03;10.23;;;5.15;;
58208;SDS011;44006;52.028;4.696;2022-07-18T05:00:28;11.00;;;5.25;;
58208;SDS011;44006;52.028;4.696;2022-07-18T05:02:55;8.88;;;5.20;;
58208;SDS011;44006;52.028;4.696;2022-07-18T05:05:21;10.73;;;6.10;;
58208;SDS011;44006;52.028;4.696;2022-07-18T05:07:48;9.70;;;5.28;;
58208;SDS011;44006;52.028;4.696;2022-07-18T05:10:15;9.95;;;5.82;;
58208;SDS011;44006;52.028;4.696;2022-07-18T05:12:42;12.02;;;6.30;;
58208;SDS011;44006;52.028;4.696;2022-07-18T05:15:09;10.70;;;5.88;;
58208;SDS011;44006;52.028;4.696;2022-07-18T05:17:37;11.10;;;6.78;;
58208;SDS011;44006;52.028;4.696;2022-07-18T05:20:03;11.43;;;6.57;;
58208;SDS011;44006;52.028;4.696;2022-07-18T05:22:31;14.13;;;6.53;;
58208;SDS011;44006;52.028;4.696;2022-07-18T05:24:57;11.70;;;6.43;;
58208;SDS011;44006;52.028;4.696;2022-07-18T05:27:22;11.23;;;6.40;;
58208;SDS011;44006;52.028;4.696;2022-07-18T05:29:48;11.43;;;6.35;;
58208;SDS011;44006;52.028;4.696;2022-07-18T05:32:13;9.65;;;6.35;;
58208;SDS011;44006;52.028;4.696;2022-07-18T05:34:38;12.60;;;6.40;;
58208;SDS011;44006;52.028;4.696;2022-07-18T05:37:04;14.27;;;7.20;;
58208;SDS011;44006;52.028;4.696;2022-07-18T05:39:29;12.00;;;6.20;;
58208;SDS011;44006;52.028;4.696;2022-07-18T05:41:54;11.65;;;6.32;;
58208;SDS011;44006;52.028;4.696;2022-07-18T05:44:20;10.57;;;6.28;;
58208;SDS011;44006;52.028;4.696;2022-07-18T05:46:48;13.38;;;5.93;;
58208;SDS011;44006;52.028;4.696;2022-07-18T05:49:14;12.45;;;6.00;;
58208;SDS011;44006;52.028;4.696;2022-07-18T05:51:40;10.88;;;5.53;;
58208;SDS011;44006;52.028;4.696;2022-07-18T05:54:05;18.88;;;6.57;;
58208;SDS011;44006;52.028;4.696;2022-07-18T05:56:31;12.25;;;5.90;;
58208;SDS011;44006;52.028;4.696;2022-07-18T05:58:56;17.00;;;6.35;;
58208;SDS011;44006;52.028;4.696;2022-07-18T06:01:21;12.98;;;5.93;;
58208;SDS011;44006;52.028;4.696;2022-07-18T06:03:47;13.35;;;6.68;;
58208;SDS011;44006;52.028;4.696;2022-07-18T06:06:13;10.18;;;6.22;;
58208;SDS011;44006;52.028;4.696;2022-07-18T06:08:39;12.52;;;5.95;;
58208;SDS011;44006;52.028;4.696;2022-07-18T06:11:04;11.23;;;5.68;;
58208;SDS011;44006;52.028;4.696;2022-07-18T06:13:32;11.80;;;5.95;;
58208;SDS011;44006;52.028;4.696;2022-07-18T06:15:58;10.05;;;5.72;;
58208;SDS011;44006;52.028;4.696;2022-07-18T06:18:23;11.93;;;5.60;;
58208;SDS011;44006;52.028;4.696;2022-07-18T06:20:49;11.88;;;5.50;;
58208;SDS011;44006;52.028;4.696;2022-07-18T06:23:14;13.27;;;5.95;;
58208;SDS011;44006;52.028;4.696;2022-07-18T06:25:39;10.07;;;5.07;;
58208;SDS011;44006;52.028;4.696;2022-07-18T06:28:05;11.10;;;6.22;;
58208;SDS011;44006;52.028;4.696;2022-07-18T06:30:30;11.20;;;5.47;;
58208;SDS011;44006;52.028;4.696;2022-07-18T06:32:55;11.88;;;5.53;;
58208;SDS011;44006;52.028;4.696;2022-07-18T06:35:21;14.15;;;5.10;;
58208;SDS011;44006;52.028;4.696;2022-07-18T06:37:46;10.43;;;5.15;;
58208;SDS011;44006;52.028;4.696;2022-07-18T06:40:12;14.30;;;5.55;;
58208;SDS011;44006;52.028;4.696;2022-07-18T06:42:38;10.85;;;5.80;;
58208;SDS011;44006;52.028;4.696;2022-07-18T06:45:04;10.70;;;5.47;;
58208;SDS011;44006;52.028;4.696;2022-07-18T06:47:31;8.60;;;5.15;;
58208;SDS011;44006;52.028;4.696;2022-07-18T06:49:56;7.47;;;4.45;;
58208;SDS011;44006;52.028;4.696;2022-07-18T06:52:22;7.25;;;4.30;;
58208;SDS011;44006;52.028;4.696;2022-07-18T06:54:47;14.05;;;5.20;;
58208;SDS011;44006;52.028;4.696;2022-07-18T06:57:13;10.63;;;5.35;;
58208;SDS011;44006;52.028;4.696;2022-07-18T06:59:38;9.63;;;5.22;;
58208;SDS011;44006;52.028;4.696;2022-07-18T07:02:04;11.93;;;4.93;;
58208;SDS011;44006;52.028;4.696;2022-07-18T07:04:29;11.55;;;4.93;;
58208;SDS011;44006;52.028;4.696;2022-07-18T07:06:55;10.23;;;4.93;;
58208;SDS011;44006;52.028;4.696;2022-07-18T07:09:21;13.23;;;5.25;;
58208;SDS011;44006;52.028;4.696;2022-07-18T07:11:46;12.32;;;5.43;;
58208;SDS011;44006;52.028;4.696;2022-07-18T07:14:11;12.95;;;4.70;;
58208;SDS011;44006;52.028;4.696;2022-07-18T07:16:37;8.73;;;4.25;;
58208;SDS011;44006;52.028;4.696;2022-07-18T07:19:02;8.35;;;3.88;;
58208;SDS011;44006;52.028;4.696;2022-07-18T07:21:27;8.70;;;4.80;;
58208;SDS011;44006;52.028;4.696;2022-07-18T07:23:53;11.30;;;4.40;;
58208;SDS011;44006;52.028;4.696;2022-07-18T07:26:19;9.65;;;5.15;;
58208;SDS011;44006;52.028;4.696;2022-07-18T07:28:44;9.13;;;4.40;;
58208;SDS011;44006;52.028;4.696;2022-07-18T07:31:09;9.55;;;4.05;;
58208;SDS011;44006;52.028;4.696;2022-07-18T07:33:35;9.48;;;4.13;;
58208;SDS011;44006;52.028;4.696;2022-07-18T07:36:01;8.68;;;3.85;;
58208;SDS011;44006;52.028;4.696;2022-07-18T07:38:28;10.20;;;4.18;;
58208;SDS011;44006;52.028;4.696;2022-07-18T07:40:54;10.20;;;5.13;;
58208;SDS011;44006;52.028;4.696;2022-07-18T07:43:20;7.68;;;4.65;;
58208;SDS011;44006;52.028;4.696;2022-07-18T07:45:46;9.23;;;3.97;;
58208;SDS011;44006;52.028;4.696;2022-07-18T07:48:13;8.15;;;3.97;;
58208;SDS011;44006;52.028;4.696;2022-07-18T07:50:40;9.55;;;3.95;;
58208;SDS011;44006;52.028;4.696;2022-07-18T07:53:06;9.07;;;4.07;;
58208;SDS011;44006;52.028;4.696;2022-07-18T07:55:32;10.73;;;3.88;;
58208;SDS011;44006;52.028;4.696;2022-07-18T07:57:57;8.15;;;4.18;;
58208;SDS011;44006;52.028;4.696;2022-07-18T08:00:23;8.68;;;4.18;;
58208;SDS011;44006;52.028;4.696;2022-07-18T08:02:52;10.27;;;4.50;;
58208;SDS011;44006;52.028;4.696;2022-07-18T08:05:17;10.55;;;4.15;;
58208;SDS011;44006;52.028;4.696;2022-07-18T08:07:43;9.15;;;3.40;;
58208;SDS011;44006;52.028;4.696;2022-07-18T08:10:08;11.68;;;4.05;;
58208;SDS011;44006;52.028;4.696;2022-07-18T08:12:34;9.43;;;4.50;;
58208;SDS011;44006;52.028;4.696;2022-07-18T08:14:59;14.18;;;4.13;;
58208;SDS011;44006;52.028;4.696;2022-07-18T08:17:24;9.50;;;3.60;;
58208;SDS011;44006;52.028;4.696;2022-07-18T08:19:50;8.20;;;3.83;;
58208;SDS011;44006;52.028;4.696;2022-07-18T08:22:15;19.80;;;4.22;;
58208;SDS011;44006;52.028;4.696;2022-07-18T08:24:40;12.02;;;4.50;;
58208;SDS011;44006;52.028;4.696;2022-07-18T08:27:06;8.75;;;3.50;;
58208;SDS011;44006;52.028;4.696;2022-07-18T08:29:31;11.75;;;3.67;;
58208;SDS011;44006;52.028;4.696;2022-07-18T08:31:57;10.35;;;3.53;;
58208;SDS011;44006;52.028;4.696;2022-07-18T08:34:23;12.52;;;4.10;;
58208;SDS011;44006;52.028;4.696;2022-07-18T08:36:48;8.30;;;3.83;;
58208;SDS011;44006;52.028;4.696;2022-07-18T08:39:13;8.35;;;4.13;;
58208;SDS011;44006;52.028;4.696;2022-07-18T08:41:39;10.38;;;3.78;;
58208;SDS011;44006;52.028;4.696;2022-07-18T08:44:09;8.77;;;3.40;;
58208;SDS011;44006;52.028;4.696;2022-07-18T08:46:36;9.43;;;3.20;;
58208;SDS011;44006;52.028;4.696;2022-07-18T08:49:04;8.75;;;3.05;;
58208;SDS011;44006;52.028;4.696;2022-07-18T08:51:31;9.57;;;3.08;;
58208;SDS011;44006;52.028;4.696;2022-07-18T08:53:59;26.20;;;4.30;;
58208;SDS011;44006;52.028;4.696;2022-07-18T08:56:25;13.73;;;3.90;;
58208;SDS011;44006;52.028;4.696;2022-07-18T08:58:51;13.57;;;3.60;;
58208;SDS011;44006;52.028;4.696;2022-07-18T09:01:16;7.03;;;3.08;;
58208;SDS011;44006;52.028;4.696;2022-07-18T09:03:41;11.57;;;2.97;;
58208;SDS011;44006;52.028;4.696;2022-07-18T09:06:12;6.55;;;2.95;;
58208;SDS011;44006;52.028;4.696;2022-07-18T09:08:39;7.05;;;3.22;;
58208;SDS011;44006;52.028;4.696;2022-07-18T09:11:21;11.88;;;2.90;;
58208;SDS011;44006;52.028;4.696;2022-07-18T09:13:47;10.80;;;3.05;;
58208;SDS011;44006;52.028;4.696;2022-07-18T09:16:13;7.55;;;2.65;;
58208;SDS011;44006;52.028;4.696;2022-07-18T09:18:40;11.18;;;2.92;;
58208;SDS011;44006;52.028;4.696;2022-07-18T09:21:11;7.10;;;2.90;;
58208;SDS011;44006;52.028;4.696;2022-07-18T09:23:43;23.77;;;3.65;;
58208;SDS011;44006;52.028;4.696;2022-07-18T09:26:11;34.60;;;4.72;;
58208;SDS011;44006;52.028;4.696;2022-07-18T09:28:50;19.35;;;3.38;;
58208;SDS011;44006;52.028;4.696;2022-07-18T09:31:21;21.17;;;3.63;;
58208;SDS011;44006;52.028;4.696;2022-07-18T09:33:53;10.95;;;3.20;;
58208;SDS011;44006;52.028;4.696;2022-07-18T09:36:20;8.23;;;3.20;;
58208;SDS011;44006;52.028;4.696;2022-07-18T09:38:46;8.32;;;3.30;;
58208;SDS011;44006;52.028;4.696;2022-07-18T09:41:11;14.15;;;3.33;;
58208;SDS011;44006;52.028;4.696;2022-07-18T09:43:37;12.35;;;2.78;;
58208;SDS011;44006;52.028;4.696;2022-07-18T09:46:03;8.07;;;2.63;;
58208;SDS011;44006;52.028;4.696;2022-07-18T09:48:30;10.48;;;2.90;;
58208;SDS011;44006;52.028;4.696;2022-07-18T09:51:06;8.55;;;3.00;;
58208;SDS011;44006;52.028;4.696;2022-07-18T09:56:03;11.30;;;3.33;;
58208;SDS011;44006;52.028;4.696;2022-07-18T09:58:37;10.25;;;2.83;;
58208;SDS011;44006;52.028;4.696;2022-07-18T10:01:04;6.35;;;2.90;;
58208;SDS011;44006;52.028;4.696;2022-07-18T10:03:32;12.68;;;2.97;;
58208;SDS011;44006;52.028;4.696;2022-07-18T10:05:58;6.93;;;2.50;;
58208;SDS011;44006;52.028;4.696;2022-07-18T10:08:26;8.60;;;2.30;;
58208;SDS011;44006;52.028;4.696;2022-07-18T10:10:54;6.60;;;2.72;;
58208;SDS011;44006;52.028;4.696;2022-07-18T10:13:21;5.65;;;2.17;;
58208;SDS011;44006;52.028;4.696;2022-07-18T10:15:48;12.32;;;2.22;;
58208;SDS011;44006;52.028;4.696;2022-07-18T10:18:27;7.80;;;2.65;;
58208;SDS011;44006;52.028;4.696;2022-07-18T10:21:10;5.55;;;2.03;;
58208;SDS011;44006;52.028;4.696;2022-07-18T10:31:20;4.80;;;2.22;;
58208;SDS011;44006;52.028;4.696;2022-07-18T10:33:46;5.70;;;2.17;;
58208;SDS011;44006;52.028;4.696;2022-07-18T10:36:22;6.38;;;2.13;;
58208;SDS011;44006;52.028;4.696;2022-07-18T10:57:39;5.82;;;3.00;;
58208;SDS011;44006;52.028;4.696;2022-07-18T11:02:39;6.65;;;3.13;;
58208;SDS011;44006;52.028;4.696;2022-07-18T11:15:59;6.53;;;2.65;;
58208;SDS011;44006;52.028;4.696;2022-07-18T11:18:27;5.70;;;2.63;;
58208;SDS011;44006;52.028;4.696;2022-07-18T11:20:52;5.72;;;2.40;;
58208;SDS011;44006;52.028;4.696;2022-07-18T11:25:47;8.35;;;3.08;;
58208;SDS011;44006;52.028;4.696;2022-07-18T11:28:15;7.25;;;3.03;;
58208;SDS011;44006;52.028;4.696;2022-07-18T11:30:41;6.55;;;2.70;;
58208;SDS011;44006;52.028;4.696;2022-07-18T11:33:20;8.35;;;2.92;;
58208;SDS011;44006;52.028;4.696;2022-07-18T11:35:47;5.93;;;2.90;;
58208;SDS011;44006;52.028;4.696;2022-07-18T11:38:13;6.00;;;2.78;;
58208;SDS011;44006;52.028;4.696;2022-07-18T11:40:46;7.55;;;2.50;;
58208;SDS011;44006;52.028;4.696;2022-07-18T11:43:21;5.65;;;2.40;;
58208;SDS011;44006;52.028;4.696;2022-07-18T11:46:09;4.57;;;2.70;;
58208;SDS011;44006;52.028;4.696;2022-07-18T11:48:37;5.57;;;2.60;;
58208;SDS011;44006;52.028;4.696;2022-07-18T11:51:10;5.68;;;2.40;;
58208;SDS011;44006;52.028;4.696;2022-07-18T11:53:45;7.15;;;2.78;;
58208;SDS011;44006;52.028;4.696;2022-07-18T11:56:19;6.15;;;3.03;;
58208;SDS011;44006;52.028;4.696;2022-07-18T11:58:46;5.43;;;2.30;;
58208;SDS011;44006;52.028;4.696;2022-07-18T12:01:13;3.83;;;1.90;;
58208;SDS011;44006;52.028;4.696;2022-07-18T12:03:46;5.72;;;2.30;;
58208;SDS011;44006;52.028;4.696;2022-07-18T12:06:17;7.55;;;2.33;;
58208;SDS011;44006;52.028;4.696;2022-07-18T12:08:50;4.55;;;1.95;;
58208;SDS011;44006;52.028;4.696;2022-07-18T12:11:18;8.70;;;2.10;;
58208;SDS011;44006;52.028;4.696;2022-07-18T12:13:56;5.80;;;2.20;;
58208;SDS011;44006;52.028;4.696;2022-07-18T12:16:22;5.07;;;2.08;;
58208;SDS011;44006;52.028;4.696;2022-07-18T12:19:06;7.43;;;2.10;;
58208;SDS011;44006;52.028;4.696;2022-07-18T12:32:47;8.18;;;2.10;;
58208;SDS011;44006;52.028;4.696;2022-07-18T12:35:15;7.38;;;2.25;;
58208;SDS011;44006;52.028;4.696;2022-07-18T12:38:00;3.28;;;2.10;;
58208;SDS011;44006;52.028;4.696;2022-07-18T12:45:47;6.70;;;2.75;;
58208;SDS011;44006;52.028;4.696;2022-07-18T12:48:13;4.85;;;2.45;;
58208;SDS011;44006;52.028;4.696;2022-07-18T12:50:39;5.32;;;1.95;;
58208;SDS011;44006;52.028;4.696;2022-07-18T12:53:05;6.45;;;2.67;;
58208;SDS011;44006;52.028;4.696;2022-07-18T12:55:31;6.28;;;2.30;;
58208;SDS011;44006;52.028;4.696;2022-07-18T12:57:56;5.70;;;2.38;;
58208;SDS011;44006;52.028;4.696;2022-07-18T13:00:22;5.45;;;2.67;;
58208;SDS011;44006;52.028;4.696;2022-07-18T13:02:47;5.93;;;2.63;;
58208;SDS011;44006;52.028;4.696;2022-07-18T13:05:12;5.57;;;2.50;;
58208;SDS011;44006;52.028;4.696;2022-07-18T13:07:38;4.65;;;2.40;;
58208;SDS011;44006;52.028;4.696;2022-07-18T13:10:04;5.60;;;2.60;;
58208;SDS011;44006;52.028;4.696;2022-07-18T13:12:30;4.13;;;2.42;;
58208;SDS011;44006;52.028;4.696;2022-07-18T13:14:56;3.53;;;2.30;;
58208;SDS011;44006;52.028;4.696;2022-07-18T13:17:22;4.05;;;2.70;;
58208;SDS011;44006;52.028;4.696;2022-07-18T13:19:48;4.10;;;2.47;;
58208;SDS011;44006;52.028;4.696;2022-07-18T13:22:14;6.95;;;2.38;;
58208;SDS011;44006;52.028;4.696;2022-07-18T13:24:39;4.03;;;2.30;;
58208;SDS011;44006;52.028;4.696;2022-07-18T13:27:05;6.72;;;2.45;;
58208;SDS011;44006;52.028;4.696;2022-07-18T13:29:30;4.40;;;2.40;;
58208;SDS011;44006;52.028;4.696;2022-07-18T13:31:56;4.65;;;2.50;;
58208;SDS011;44006;52.028;4.696;2022-07-18T13:34:21;3.88;;;2.45;;
58208;SDS011;44006;52.028;4.696;2022-07-18T13:36:48;6.32;;;2.60;;
58208;SDS011;44006;52.028;4.696;2022-07-18T13:39:14;6.70;;;2.67;;
58208;SDS011;44006;52.028;4.696;2022-07-18T13:41:40;3.72;;;2.38;;
58208;SDS011;44006;52.028;4.696;2022-07-18T13:44:06;4.68;;;2.30;;
58208;SDS011;44006;52.028;4.696;2022-07-18T13:46:32;4.85;;;2.55;;
58208;SDS011;44006;52.028;4.696;2022-07-18T13:48:57;4.43;;;2.50;;
58208;SDS011;44006;52.028;4.696;2022-07-18T13:51:23;4.18;;;2.22;;
58208;SDS011;44006;52.028;4.696;2022-07-18T13:53:48;4.10;;;2.78;;
58208;SDS011;44006;52.028;4.696;2022-07-18T13:56:13;5.40;;;2.90;;
58208;SDS011;44006;52.028;4.696;2022-07-18T13:58:39;5.32;;;2.50;;
58208;SDS011;44006;52.028;4.696;2022-07-18T14:01:04;4.38;;;2.60;;
58208;SDS011;44006;52.028;4.696;2022-07-18T14:03:30;5.18;;;3.05;;
58208;SDS011;44006;52.028;4.696;2022-07-18T14:05:56;3.40;;;2.50;;
58208;SDS011;44006;52.028;4.696;2022-07-18T14:08:21;5.40;;;2.60;;
58208;SDS011;44006;52.028;4.696;2022-07-18T14:10:46;4.95;;;2.72;;
58208;SDS011;44006;52.028;4.696;2022-07-18T14:13:12;7.25;;;2.75;;
58208;SDS011;44006;52.028;4.696;2022-07-18T14:15:37;6.07;;;2.60;;
58208;SDS011;44006;52.028;4.696;2022-07-18T14:18:02;5.03;;;2.67;;
58208;SDS011;44006;52.028;4.696;2022-07-18T14:20:29;5.35;;;2.42;;
58208;SDS011;44006;52.028;4.696;2022-07-18T14:22:55;5.03;;;3.03;;
58208;SDS011;44006;52.028;4.696;2022-07-18T14:25:20;5.43;;;2.65;;
58208;SDS011;44006;52.028;4.696;2022-07-18T14:27:46;6.22;;;2.95;;
58208;SDS011;44006;52.028;4.696;2022-07-18T14:30:12;4.68;;;2.85;;
58208;SDS011;44006;52.028;4.696;2022-07-18T14:32:39;4.47;;;2.90;;
58208;SDS011;44006;52.028;4.696;2022-07-18T14:35:05;3.90;;;2.92;;
58208;SDS011;44006;52.028;4.696;2022-07-18T14:37:31;5.93;;;3.08;;
58208;SDS011;44006;52.028;4.696;2022-07-18T14:39:57;4.22;;;2.88;;
58208;SDS011;44006;52.028;4.696;2022-07-18T14:42:23;5.22;;;3.05;;
58208;SDS011;44006;52.028;4.696;2022-07-18T14:44:49;3.95;;;2.70;;
58208;SDS011;44006;52.028;4.696;2022-07-18T14:47:14;3.72;;;2.33;;
58208;SDS011;44006;52.028;4.696;2022-07-18T14:49:39;4.78;;;2.53;;
58208;SDS011;44006;52.028;4.696;2022-07-18T14:52:05;3.72;;;2.72;;
58208;SDS011;44006;52.028;4.696;2022-07-18T14:54:30;3.47;;;2.42;;
58208;SDS011;44006;52.028;4.696;2022-07-18T14:56:56;4.70;;;2.50;;
58208;SDS011;44006;52.028;4.696;2022-07-18T14:59:22;3.55;;;2.33;;
58208;SDS011;44006;52.028;4.696;2022-07-18T15:01:47;3.80;;;2.80;;
58208;SDS011;44006;52.028;4.696;2022-07-18T15:04:14;5.03;;;2.33;;
58208;SDS011;44006;52.028;4.696;2022-07-18T15:06:40;6.88;;;2.80;;
58208;SDS011;44006;52.028;4.696;2022-07-18T15:09:06;4.65;;;2.70;;
58208;SDS011;44006;52.028;4.696;2022-07-18T15:11:34;4.97;;;2.45;;
58208;SDS011;44006;52.028;4.696;2022-07-18T15:13:59;8.57;;;2.50;;
58208;SDS011;44006;52.028;4.696;2022-07-18T15:16:25;6.88;;;3.03;;
58208;SDS011;44006;52.028;4.696;2022-07-18T15:18:50;5.85;;;2.53;;
58208;SDS011;44006;52.028;4.696;2022-07-18T15:21:15;4.00;;;2.30;;
58208;SDS011;44006;52.028;4.696;2022-07-18T15:23:41;5.38;;;2.70;;
58208;SDS011;44006;52.028;4.696;2022-07-18T15:26:06;4.90;;;2.78;;
58208;SDS011;44006;52.028;4.696;2022-07-18T15:28:32;5.30;;;2.63;;
58208;SDS011;44006;52.028;4.696;2022-07-18T15:30:57;7.28;;;2.83;;
58208;SDS011;44006;52.028;4.696;2022-07-18T15:33:22;4.75;;;2.92;;
58208;SDS011;44006;52.028;4.696;2022-07-18T15:35:49;4.80;;;2.53;;
58208;SDS011;44006;52.028;4.696;2022-07-18T15:38:14;5.45;;;2.50;;
58208;SDS011;44006;52.028;4.696;2022-07-18T15:40:40;4.22;;;2.58;;